»·PEaware :: KLM661B EHAM-KIAH

KLM661B :: EHAM-KIAH

FLIGHT INFORMATION

Flight Status: Arrived
Operator:
KLM
More flights by this operator :: More flights under this callsign
Pilot: Drew L. (13237)
Aircraft: Unknown
(B789)
More flights by this aircraft type
Origin: EHAM Schiphol
Netherlands
Destination: KIAH G Bush Intercontinental/Houst
United States
More flights between these airports :: More routes between these airports
Route: BERG1Z BERGI UL602 MIMVA L602 EMLON M79 NATEB TLA GOMUP/M085F380 5920N 6030N 6040N 5850N CUDDY/N0499F380 N660B NOWAA/N0489F400 N660B SSM OBK J101 JOT/N0509F340 J101 PNT/N0514F300 J101 SPI/N0491F400 J101 LIT Q33 DHART J180 SWB DOOBI2
File this flight plan on PilotEdge
Remarks: PBN / A1B1C1D1L1O1S2 DOF / 180529 REG / N899SB EET / EGTT0011 EGPX0040 EGGX0115 CZQX0230 BGGL0316 CZQX0337 CZUL0501 CZYZ0619 KZMP0649 KZAU0715 KZKC0747 KZME0813 KZFW0841 KZHU0852 OPR / KLM PER / D RALT / BIKF CYYR RMK / TCAS SIMBRIEF
Altitude:
(Current/Filed)
38,000ft
Speed:
(Current/Filed)
489kts
Departed: 29-May-18 12:12 AM
Arrived: 29-May-18 09:24 AM
Distance/Time
Traveled:
4343nm/9:12
Distance/Time
To Go:
Arrived

Flight Plot

Page will automatically refresh every two minutes.

Flight plan parsing failed; only flown route is shown


Map Options




Map Legend


Flown Route
Filed Route
Departure Airport
Arrival Airport
Navaid (VOR, NDB)
Fix

Horizontal Profiles

Position Reports

Time Latitude Longitude Heading Altitude Ground
Speed
28-May-18 23:30 52.312199 4.755957 86 18ft 0kts
28-May-18 23:31 52.312199 4.755957 86 18ft 0kts
28-May-18 23:32 52.312199 4.755957 86 18ft 0kts
28-May-18 23:33 52.312199 4.755957 86 18ft 0kts
28-May-18 23:34 52.312199 4.755957 86 18ft 0kts
28-May-18 23:35 52.312199 4.755957 86 18ft 0kts
28-May-18 23:36 52.312199 4.755957 86 18ft 0kts
28-May-18 23:37 52.312199 4.755957 86 18ft 0kts
28-May-18 23:38 52.312199 4.755957 86 18ft 0kts
28-May-18 23:39 52.312199 4.755957 86 18ft 0kts
28-May-18 23:40 52.312199 4.755957 86 18ft 0kts
28-May-18 23:41 52.312199 4.755957 86 18ft 0kts
28-May-18 23:42 52.312199 4.755957 86 18ft 0kts
28-May-18 23:43 52.312199 4.755957 86 18ft 0kts
28-May-18 23:44 52.312199 4.755957 86 18ft 0kts
28-May-18 23:45 52.312199 4.755957 86 18ft 0kts
28-May-18 23:46 52.312199 4.755957 86 18ft 0kts
28-May-18 23:47 52.312199 4.755957 86 18ft 0kts
28-May-18 23:48 52.312199 4.755957 86 18ft 0kts
28-May-18 23:49 52.312199 4.755957 86 18ft 0kts
28-May-18 23:50 52.312199 4.755957 86 18ft 0kts
28-May-18 23:51 52.312199 4.755957 86 18ft 0kts
28-May-18 23:52 52.312199 4.755957 86 18ft 0kts
28-May-18 23:53 52.312199 4.755957 86 18ft 0kts
28-May-18 23:54 52.312199 4.755957 86 18ft 0kts
28-May-18 23:55 52.312199 4.755957 86 18ft 0kts
28-May-18 23:56 52.312199 4.755957 86 18ft 0kts
28-May-18 23:57 52.312109 4.755124 67 18ft 2kts
28-May-18 23:58 52.311704 4.754681 354 18ft 2kts
28-May-18 23:59 52.311522 4.754711 354 18ft 0kts
29-May-18 00:00 52.311525 4.754711 354 18ft 0kts
29-May-18 00:01 52.312011 4.754614 355 18ft 8kts
29-May-18 00:02 52.315047 4.753475 278 18ft 14kts
29-May-18 00:03 52.314733 4.743263 266 18ft 16kts
29-May-18 00:04 52.317244 4.741695 3 18ft 21kts
29-May-18 00:05 52.320480 4.737381 273 18ft 22kts
29-May-18 00:06 52.324499 4.728474 319 18ft 30kts
29-May-18 00:07 52.329206 4.720718 310 18ft 17kts
29-May-18 00:08 52.330828 4.714237 221 18ft 11kts
29-May-18 00:09 52.329115 4.711825 220 18ft 0kts
29-May-18 00:10 52.328680 4.710868 256 18ft 14kts
29-May-18 00:11 52.329260 4.708953 3 18ft 0kts
29-May-18 00:12 52.352954 4.710577 2 829ft 168kts
29-May-18 00:13 52.396802 4.712870 10 4331ft 173kts
29-May-18 00:14 52.456565 4.720817 5 6584ft 255kts
29-May-18 00:15 52.533016 4.728624 5 10120ft 288kts
29-May-18 00:16 52.619294 4.711122 318 12227ft 364kts
29-May-18 00:17 52.667700 4.551293 300 14329ft 413kts
29-May-18 00:18 52.734616 4.392944 303 16789ft 430kts
29-May-18 00:19 52.795901 4.220242 297 18846ft 440kts
29-May-18 00:20 52.856208 4.041619 297 20769ft 450kts
29-May-18 00:21 52.917486 3.858816 297 22617ft 459kts
29-May-18 00:22 52.979906 3.671215 296 24365ft 468kts
29-May-18 00:23 53.042988 3.480130 296 26135ft 477kts
29-May-18 00:24 53.101910 3.280887 286 27840ft 484kts
29-May-18 00:25 53.133026 3.061113 280 29657ft 492kts
29-May-18 00:26 53.162596 2.836350 279 31747ft 496kts
29-May-18 00:27 53.191047 2.614575 279 34085ft 488kts
29-May-18 00:28 53.241009 2.404036 299 35831ft 494kts
29-May-18 00:29 53.315448 2.212244 300 37495ft 490kts
29-May-18 00:30 53.388159 2.018508 300 38419ft 490kts
29-May-18 00:31 53.460332 1.825066 300 38441ft 489kts
29-May-18 00:32 53.532113 1.631243 300 38433ft 489kts
29-May-18 00:33 53.603790 1.436111 300 38435ft 489kts
29-May-18 00:34 53.674965 1.240914 300 38455ft 490kts
29-May-18 00:35 53.746145 1.044165 300 38460ft 490kts
29-May-18 00:36 53.816833 0.847159 300 38477ft 491kts
29-May-18 00:37 53.887238 0.649354 300 38487ft 491kts
29-May-18 00:38 53.957562 0.450136 300 38506ft 491kts
29-May-18 00:39 54.028433 0.252031 306 38515ft 492kts
29-May-18 00:40 54.119601 0.078539 312 38511ft 492kts
29-May-18 00:41 54.211429 -0.094056 313 38515ft 486kts
29-May-18 00:42 54.302532 -0.265531 313 38509ft 490kts
29-May-18 00:43 54.394203 -0.439502 313 38534ft 493kts
29-May-18 00:44 54.486265 -0.615535 313 38541ft 494kts
29-May-18 00:45 54.577865 -0.791880 313 38563ft 495kts
29-May-18 00:46 54.669570 -0.969733 313 38557ft 495kts
29-May-18 00:47 54.760721 -1.147737 313 38562ft 495kts
29-May-18 00:48 54.851613 -1.326630 313 38573ft 495kts
29-May-18 00:49 54.942537 -1.506863 313 38572ft 495kts
29-May-18 00:50 55.030577 -1.690281 306 38571ft 494kts
29-May-18 00:51 55.096522 -1.900396 297 38564ft 497kts
29-May-18 00:52 55.158411 -2.117872 298 38577ft 500kts
29-May-18 00:53 55.219979 -2.336347 298 38582ft 502kts
29-May-18 00:54 55.281333 -2.555911 298 38572ft 502kts
29-May-18 00:55 55.342581 -2.777191 298 38571ft 503kts
29-May-18 00:56 55.403293 -2.998795 298 38597ft 504kts
29-May-18 00:57 55.463939 -3.222183 297 38599ft 505kts
29-May-18 00:58 55.523660 -3.446191 297 38601ft 506kts
29-May-18 00:59 55.582301 -3.672115 297 38607ft 507kts
29-May-18 01:00 55.640973 -3.899811 297 38594ft 508kts
29-May-18 01:01 55.698960 -4.127621 297 38586ft 508kts
29-May-18 01:02 55.756686 -4.356474 297 38598ft 509kts
29-May-18 01:03 55.814223 -4.586914 296 38600ft 509kts
29-May-18 01:04 55.871175 -4.817541 296 38581ft 510kts
29-May-18 01:05 55.927854 -5.049400 296 38589ft 512kts
29-May-18 01:06 55.984451 -5.283455 295 38562ft 513kts
29-May-18 01:07 56.040534 -5.517946 295 38569ft 514kts
29-May-18 01:08 56.096432 -5.754233 295 38377ft 515kts
29-May-18 01:09 56.151839 -5.991041 295 38275ft 516kts
29-May-18 01:10 56.206889 -6.228889 294 38284ft 517kts
29-May-18 01:11 56.261677 -6.468194 294 38285ft 516kts
29-May-18 01:12 56.315785 -6.707321 294 38279ft 516kts
29-May-18 01:13 56.369419 -6.947093 293 38288ft 516kts
29-May-18 01:14 56.422785 -7.188469 293 38295ft 517kts
29-May-18 01:15 56.475627 -7.430225 293 38284ft 518kts
29-May-18 01:16 56.528188 -7.673408 292 38278ft 520kts
29-May-18 01:17 56.580499 -7.918579 292 38283ft 521kts
29-May-18 01:18 56.632276 -8.163913 292 38289ft 521kts
29-May-18 01:19 56.683760 -8.411009 291 38281ft 521kts
29-May-18 01:20 56.734495 -8.657543 291 38274ft 520kts
29-May-18 01:21 56.784711 -8.904442 291 38275ft 520kts
29-May-18 01:22 56.834522 -9.152615 290 38263ft 519kts
29-May-18 01:23 56.883701 -9.400536 290 38262ft 520kts
29-May-18 01:24 56.932369 -9.649246 290 38277ft 520kts
29-May-18 01:25 56.980731 -9.899458 289 38267ft 519kts
29-May-18 01:26 57.035836 -10.143780 296 38260ft 520kts
29-May-18 01:27 57.096286 -10.384691 294 38271ft 519kts
29-May-18 01:28 57.156111 -10.627073 294 38274ft 519kts
29-May-18 01:29 57.215220 -10.869265 294 38261ft 519kts
29-May-18 01:30 57.274089 -11.113172 293 38263ft 519kts
29-May-18 01:31 57.332276 -11.357079 293 38273ft 518kts
29-May-18 01:32 57.389959 -11.601428 293 38267ft 518kts
29-May-18 01:33 57.447241 -11.846960 293 38258ft 517kts
29-May-18 01:34 57.503709 -12.091937 292 38265ft 516kts
29-May-18 01:35 57.559669 -12.337438 292 38270ft 516kts
29-May-18 01:36 57.606188 -12.543530 292 38269ft 516kts
29-May-18 01:37 57.661361 -12.790876 291 38264ft 518kts
29-May-18 01:38 57.716258 -13.039877 291 38273ft 519kts
29-May-18 01:39 57.779980 -13.332552 290 38277ft 520kts
29-May-18 01:40 57.833920 -13.583759 290 38267ft 519kts
29-May-18 01:41 57.887496 -13.836194 290 38263ft 519kts
29-May-18 01:42 57.940333 -14.088295 289 38270ft 518kts
29-May-18 01:43 57.992625 -14.340993 289 38274ft 519kts
29-May-18 01:44 58.036034 -14.553043 288 38247ft 518kts
29-May-18 01:45 58.087304 -14.806639 288 38256ft 517kts
29-May-18 01:46 58.138089 -15.060911 288 38251ft 517kts
29-May-18 01:47 58.189113 -15.319848 287 38233ft 529kts
29-May-18 01:48 58.240240 -15.582672 286 38223ft 533kts
29-May-18 01:49 58.291076 -15.847517 286 38214ft 535kts
29-May-18 01:50 58.341652 -16.114699 286 38221ft 536kts
29-May-18 01:51 58.391590 -16.382276 285 38228ft 536kts
29-May-18 01:52 58.440836 -16.649781 285 38218ft 534kts
29-May-18 01:53 58.489522 -16.918092 285 38214ft 532kts
29-May-18 01:54 58.537315 -17.185398 284 38223ft 531kts
29-May-18 01:55 58.584612 -17.453575 284 38223ft 530kts
29-May-18 01:56 58.631166 -17.721307 283 38211ft 530kts
29-May-18 01:57 58.677185 -17.990113 283 38218ft 530kts
29-May-18 01:58 58.722687 -18.260096 283 38222ft 529kts
29-May-18 01:59 58.767476 -18.529456 282 38221ft 528kts
29-May-18 02:00 58.811563 -18.798916 282 38211ft 527kts
29-May-18 02:01 58.855185 -19.069578 281 38216ft 526kts
29-May-18 02:02 58.898018 -19.339449 281 38222ft 525kts
29-May-18 02:03 58.940206 -19.609586 281 38212ft 525kts
29-May-18 02:04 58.981924 -19.880975 281 38201ft 524kts
29-May-18 02:05 59.021706 -20.152757 279 38205ft 523kts
29-May-18 02:06 59.059640 -20.424918 279 38189ft 522kts
29-May-18 02:07 59.097098 -20.698026 279 38171ft 521kts
29-May-18 02:08 59.133781 -20.970343 278 38168ft 521kts
29-May-18 02:09 59.170032 -21.243876 278 38177ft 520kts
29-May-18 02:10 59.205509 -21.516833 278 38176ft 519kts
29-May-18 02:11 59.240392 -21.790026 277 38164ft 519kts
29-May-18 02:12 59.274773 -22.064309 277 38169ft 518kts
29-May-18 02:13 59.308431 -22.338086 277 38177ft 517kts
29-May-18 02:14 59.341454 -22.611735 276 38170ft 517kts
29-May-18 02:15 59.373936 -22.886508 276 38138ft 516kts
29-May-18 02:16 59.405759 -23.160539 275 38147ft 515kts
29-May-18 02:17 59.436914 -23.434661 275 38116ft 514kts
29-May-18 02:18 59.467530 -23.709583 274 38104ft 513kts
29-May-18 02:19 59.497443 -23.983798 274 38070ft 513kts
29-May-18 02:20 59.526846 -24.259115 274 38074ft 513kts
29-May-18 02:21 59.555573 -24.533984 273 38080ft 512kts
29-May-18 02:22 59.583714 -24.809488 273 38069ft 513kts
29-May-18 02:23 59.611432 -25.086288 273 38062ft 513kts
29-May-18 02:24 59.638471 -25.363490 272 38066ft 514kts
29-May-18 02:25 59.664999 -25.641143 272 38053ft 514kts
29-May-18 02:26 59.690975 -25.919979 271 38056ft 514kts
29-May-18 02:27 59.716252 -26.198331 271 38065ft 514kts
29-May-18 02:28 59.740974 -26.476773 271 38059ft 514kts
29-May-18 02:29 59.765135 -26.756755 271 38049ft 514kts
29-May-18 02:30 59.788656 -27.036284 271 38054ft 515kts
29-May-18 02:31 59.811727 -27.317832 271 38060ft 515kts
29-May-18 02:32 59.834172 -27.599117 270 38054ft 516kts
29-May-18 02:33 59.855965 -27.881076 270 38036ft 516kts
29-May-18 02:34 59.877211 -28.163811 270 38051ft 516kts
29-May-18 02:35 59.897819 -28.446145 270 38051ft 516kts
29-May-18 02:36 59.917817 -28.728749 270 38048ft 515kts
29-May-18 02:37 59.937316 -29.012680 270 38029ft 516kts
29-May-18 02:38 59.956066 -29.296243 270 38048ft 516kts
29-May-18 02:39 59.974231 -29.580085 270 38047ft 517kts
29-May-18 02:40 59.991876 -29.865501 269 38018ft 516kts
29-May-18 02:41 60.005865 -30.150665 267 38016ft 516kts
29-May-18 02:42 60.015835 -30.436865 267 38027ft 515kts
29-May-18 02:43 60.025360 -30.721762 267 38035ft 514kts
29-May-18 02:44 60.034266 -31.006274 267 38023ft 513kts
29-May-18 02:45 60.042566 -31.291392 267 38014ft 512kts
29-May-18 02:46 60.050286 -31.576475 267 39167ft 510kts
29-May-18 02:47 60.057251 -31.859315 267 40449ft 513kts
29-May-18 02:48 60.063729 -32.143469 268 41835ft 508kts
29-May-18 02:49 60.069512 -32.426712 267 42021ft 510kts
29-May-18 02:50 60.074742 -32.710491 267 42016ft 510kts
29-May-18 02:51 60.079326 -32.995278 267 42025ft 510kts
29-May-18 02:52 60.083341 -33.279071 267 42023ft 510kts
29-May-18 02:53 60.086739 -33.563071 267 42011ft 510kts
29-May-18 02:54 60.089494 -33.847922 267 42010ft 510kts
29-May-18 02:55 60.091672 -34.131910 267 42018ft 510kts
29-May-18 02:56 60.093231 -34.416667 267 42016ft 510kts
29-May-18 02:57 60.094152 -34.700631 266 42004ft 510kts
29-May-18 02:58 60.094518 -34.984394 267 42004ft 510kts
29-May-18 02:59 60.094241 -35.268909 267 42012ft 510kts
29-May-18 03:00 60.093361 -35.552574 266 42010ft 509kts
29-May-18 03:01 60.091868 -35.836128 266 42000ft 509kts
29-May-18 03:02 60.089770 -36.120424 266 42026ft 509kts
29-May-18 03:03 60.087073 -36.403753 266 42024ft 509kts
29-May-18 03:04 60.083785 -36.686885 266 42013ft 509kts
29-May-18 03:05 60.079841 -36.970655 266 42014ft 508kts
29-May-18 03:06 60.075353 -37.253139 266 42002ft 508kts
29-May-18 03:07 60.070247 -37.536065 266 41933ft 507kts
29-May-18 03:08 60.064540 -37.817411 266 41907ft 506kts
29-May-18 03:09 60.058235 -38.098387 265 41909ft 506kts
29-May-18 03:10 60.051341 -38.379974 265 41916ft 505kts
29-May-18 03:11 60.043877 -38.660464 265 41909ft 505kts
29-May-18 03:12 60.035866 -38.940642 265 41899ft 505kts
29-May-18 03:13 60.027204 -39.221274 265 41904ft 504kts
29-May-18 03:14 60.017999 -39.500268 265 41882ft 503kts
29-May-18 03:15 60.008139 -39.778627 264 41888ft 502kts
29-May-18 03:16 59.990574 -40.055817 260 41892ft 502kts
29-May-18 03:17 59.952077 -40.322534 252 41879ft 501kts
29-May-18 03:18 59.910942 -40.587525 252 41881ft 501kts
29-May-18 03:19 59.868986 -40.852255 252 41890ft 500kts
29-May-18 03:20 59.826725 -41.115058 252 41885ft 499kts
29-May-18 03:21 59.783895 -41.377580 252 41875ft 498kts
29-May-18 03:22 59.740673 -41.638253 251 41880ft 498kts
29-May-18 03:23 59.696966 -41.898371 251 41888ft 498kts
29-May-18 03:24 59.652666 -42.158507 251 41883ft 497kts
29-May-18 03:25 59.608037 -42.416662 251 41872ft 497kts
29-May-18 03:26 59.562946 -42.673941 251 41878ft 496kts
29-May-18 03:27 59.517295 -42.930927 251 41887ft 495kts
29-May-18 03:28 59.471285 -43.185962 250 41878ft 494kts
29-May-18 03:29 59.424784 -43.440740 250 41871ft 494kts
29-May-18 03:30 59.378016 -43.693474 250 41879ft 493kts
29-May-18 03:31 59.330772 -43.945243 250 41884ft 492kts
29-May-18 03:32 59.282971 -44.197015 249 41876ft 492kts
29-May-18 03:33 59.234852 -44.447018 249 41869ft 492kts
29-May-18 03:34 59.186368 -44.695914 249 41878ft 490kts
29-May-18 03:35 59.137301 -44.944481 249 41883ft 490kts
29-May-18 03:36 59.088006 -45.191145 249 41875ft 489kts
29-May-18 03:37 59.038242 -45.437078 248 41869ft 489kts
29-May-18 03:38 58.987898 -45.682888 248 41845ft 489kts
29-May-18 03:39 58.937334 -45.926949 248 41848ft 488kts
29-May-18 03:40 58.886188 -46.170601 248 41858ft 487kts
29-May-18 03:41 58.834959 -46.411961 248 41846ft 486kts
29-May-18 03:42 58.783382 -46.652413 248 41839ft 485kts
29-May-18 03:43 58.731126 -46.892679 247 41846ft 485kts
29-May-18 03:44 58.678648 -47.131261 247 41849ft 485kts
29-May-18 03:45 58.625810 -47.369146 247 41838ft 484kts
29-May-18 03:46 58.572376 -47.606767 247 41832ft 484kts
29-May-18 03:47 58.518766 -47.842572 247 41838ft 483kts
29-May-18 03:48 58.464754 -48.077458 246 41840ft 483kts
29-May-18 03:49 58.410237 -48.311940 246 41827ft 482kts
29-May-18 03:50 58.355527 -48.544877 246 41825ft 482kts
29-May-18 03:51 58.300423 -48.777015 246 41833ft 482kts
29-May-18 03:52 58.244659 -49.009067 245 41829ft 482kts
29-May-18 03:53 58.198062 -49.201342 245 41816ft 482kts
29-May-18 03:54 58.132153 -49.470390 245 41815ft 482kts
29-May-18 03:55 58.075402 -49.699330 245 41823ft 481kts
29-May-18 03:56 58.018725 -49.927781 247 41822ft 481kts
29-May-18 03:57 57.974283 -50.164749 254 41806ft 480kts
29-May-18 03:58 57.937358 -50.406994 253 41807ft 480kts
29-May-18 03:59 57.899578 -50.647253 253 41782ft 479kts
29-May-18 04:00 57.861452 -50.886579 253 41788ft 478kts
29-May-18 04:01 57.822767 -51.126031 252 41789ft 478kts
29-May-18 04:02 57.783794 -51.364139 252 41786ft 478kts
29-May-18 04:03 57.750975 -51.562230 252 41796ft 478kts
29-May-18 04:04 57.711011 -51.800464 252 41758ft 479kts
29-May-18 04:05 57.670739 -52.037173 252 41684ft 478kts
29-May-18 04:06 57.630115 -52.273314 251 41649ft 478kts
29-May-18 04:07 57.588814 -52.509502 251 41658ft 477kts
29-May-18 04:08 57.547308 -52.744184 251 41654ft 477kts
29-May-18 04:09 57.505427 -52.978203 251 41677ft 477kts
29-May-18 04:10 57.462967 -53.212330 250 41675ft 477kts
29-May-18 04:11 57.420269 -53.445087 250 41663ft 477kts
29-May-18 04:12 57.377052 -53.677388 250 41664ft 477kts
29-May-18 04:13 57.333277 -53.910041 249 41672ft 477kts
29-May-18 04:14 57.289171 -54.141486 249 41667ft 478kts
29-May-18 04:15 57.244629 -54.372559 249 41656ft 478kts
29-May-18 04:16 57.199497 -54.603923 249 41659ft 478kts
29-May-18 04:17 57.154044 -54.834381 248 41677ft 480kts
29-May-18 04:18 57.107845 -55.065693 248 41673ft 480kts
29-May-18 04:19 57.061368 -55.295712 248 41662ft 481kts
29-May-18 04:20 57.014421 -55.525257 248 41665ft 481kts
29-May-18 04:21 56.966870 -55.755381 248 41615ft 481kts
29-May-18 04:22 56.919081 -55.983831 248 41606ft 480kts
29-May-18 04:23 56.870933 -56.211737 247 41596ft 481kts
29-May-18 04:24 56.822062 -56.440014 247 41599ft 482kts
29-May-18 04:25 56.772964 -56.667146 247 41605ft 482kts
29-May-18 04:26 56.723274 -56.893807 246 41603ft 482kts
29-May-18 04:27 56.671138 -57.119271 245 41601ft 482kts
29-May-18 04:28 56.616443 -57.341491 245 41604ft 482kts
29-May-18 04:29 56.561508 -57.563198 245 41638ft 482kts
29-May-18 04:30 56.505969 -57.784999 245 41648ft 482kts
29-May-18 04:31 56.450242 -58.005308 244 41656ft 482kts
29-May-18 04:32 56.393938 -58.225837 244 41672ft 483kts
29-May-18 04:33 56.337338 -58.445258 244 41693ft 483kts
29-May-18 04:34 56.280330 -58.664137 244 41668ft 483kts
29-May-18 04:35 56.222698 -58.883213 244 41670ft 484kts
29-May-18 04:36 56.164797 -59.101208 243 41683ft 484kts
29-May-18 04:37 56.106485 -59.318863 243 41702ft 485kts
29-May-18 04:38 56.047484 -59.536720 243 41717ft 485kts
29-May-18 04:39 55.988285 -59.753221 243 41722ft 485kts
29-May-18 04:40 55.928518 -59.969925 243 41713ft 485kts
29-May-18 04:41 55.868555 -60.185218 243 41709ft 486kts
29-May-18 04:42 55.808221 -60.399891 243 41718ft 486kts
29-May-18 04:43 55.747258 -60.614618 243 41726ft 486kts
29-May-18 04:44 55.686165 -60.827975 243 41719ft 486kts
29-May-18 04:45 55.624690 -61.040742 243 41715ft 486kts
29-May-18 04:46 55.562626 -61.253518 243 41726ft 486kts
29-May-18 04:47 55.500391 -61.465024 243 41733ft 486kts
29-May-18 04:48 55.437727 -61.676037 242 41735ft 486kts
29-May-18 04:49 55.374470 -61.887151 242 41726ft 487kts
29-May-18 04:50 55.311026 -62.097020 242 41735ft 487kts
29-May-18 04:51 55.247192 -62.306282 242 41750ft 487kts
29-May-18 04:52 55.182811 -62.515510 242 41750ft 487kts
29-May-18 04:53 55.118249 -62.723469 242 41783ft 487kts
29-May-18 04:54 55.053095 -62.931635 242 41791ft 488kts
29-May-18 04:55 54.987773 -63.138459 242 41808ft 488kts
29-May-18 04:56 54.921945 -63.344982 242 41813ft 488kts
29-May-18 04:57 54.855592 -63.551416 242 41812ft 488kts
29-May-18 04:58 54.789121 -63.756697 242 41848ft 489kts
29-May-18 04:59 54.722155 -63.961526 242 41876ft 489kts
29-May-18 05:00 54.654626 -64.166417 242 41881ft 490kts
29-May-18 05:01 54.586897 -64.370024 241 41908ft 490kts
29-May-18 05:02 54.518849 -64.573294 242 41911ft 490kts
29-May-18 05:03 54.450130 -64.776436 241 41907ft 490kts
29-May-18 05:04 54.381315 -64.978330 241 41916ft 491kts
29-May-18 05:05 54.311858 -65.180554 241 41930ft 491kts
29-May-18 05:06 54.242282 -65.381302 241 41929ft 491kts
29-May-18 05:07 54.172316 -65.581579 241 41929ft 491kts
29-May-18 05:08 54.101793 -65.781951 241 41945ft 492kts
29-May-18 05:09 54.031157 -65.980976 241 41951ft 492kts
29-May-18 05:10 53.960199 -66.179256 241 41950ft 492kts
29-May-18 05:11 53.888600 -66.377621 241 41963ft 492kts
29-May-18 05:12 53.817005 -66.574561 241 41967ft 492kts
29-May-18 05:13 53.745033 -66.770836 241 41959ft 492kts
29-May-18 05:14 53.672500 -66.967257 241 41982ft 492kts
29-May-18 05:15 53.599853 -67.162375 241 41973ft 492kts
29-May-18 05:16 53.526560 -67.357611 241 41978ft 493kts
29-May-18 05:17 53.453209 -67.551696 241 42011ft 493kts
29-May-18 05:18 53.379452 -67.745232 241 42001ft 493kts
29-May-18 05:19 53.305110 -67.938794 241 42000ft 493kts
29-May-18 05:20 53.230696 -68.131055 241 42010ft 493kts
29-May-18 05:21 53.155941 -68.322754 241 42012ft 493kts
29-May-18 05:22 53.080673 -68.514331 241 42020ft 493kts
29-May-18 05:23 53.005357 -68.704483 241 42029ft 493kts
29-May-18 05:24 52.929749 -68.894084 241 42043ft 493kts
29-May-18 05:25 52.853642 -69.083516 241 42042ft 493kts
29-May-18 05:26 52.777472 -69.271600 241 42057ft 493kts
29-May-18 05:27 52.700734 -69.459624 241 42070ft 493kts
29-May-18 05:28 52.624066 -69.646273 241 42071ft 492kts
29-May-18 05:29 52.547118 -69.832216 241 42072ft 492kts
29-May-18 05:30 52.469638 -70.017908 241 42087ft 492kts
29-May-18 05:31 52.392200 -70.202419 241 42098ft 492kts
29-May-18 05:32 52.314437 -70.386223 241 42098ft 492kts
29-May-18 05:33 52.236132 -70.570000 241 42096ft 492kts
29-May-18 05:34 52.157697 -70.752670 241 42113ft 492kts
29-May-18 05:35 52.079017 -70.934826 241 42117ft 492kts
29-May-18 05:36 51.999785 -71.116833 241 42142ft 492kts
29-May-18 05:37 51.920599 -71.297448 241 42173ft 491kts
29-May-18 05:38 51.841039 -71.477725 241 42172ft 491kts
29-May-18 05:39 51.761470 -71.656690 241 42167ft 491kts
29-May-18 05:40 51.681603 -71.835114 241 42177ft 491kts
29-May-18 05:41 51.601176 -72.013553 241 42187ft 491kts
29-May-18 05:42 51.520791 -72.190679 241 42212ft 491kts
29-May-18 05:43 51.440215 -72.366924 240 42225ft 490kts
29-May-18 05:44 51.359274 -72.542902 240 42221ft 489kts
29-May-18 05:45 51.278406 -72.717519 240 42235ft 489kts
29-May-18 05:46 51.197405 -72.891265 240 42243ft 488kts
29-May-18 05:47 51.115961 -73.064809 240 42239ft 487kts
29-May-18 05:48 51.034675 -73.236794 240 42247ft 487kts
29-May-18 05:49 50.952937 -73.408612 240 42260ft 486kts
29-May-18 05:50 50.871366 -73.578882 240 42260ft 485kts
29-May-18 05:51 50.794901 -73.753660 246 42267ft 482kts
29-May-18 05:52 50.732257 -73.939762 248 42285ft 476kts
29-May-18 05:53 50.669706 -74.122852 248 42286ft 473kts
29-May-18 05:54 50.607213 -74.304991 248 42283ft 473kts
29-May-18 05:55 50.544286 -74.487030 248 42280ft 472kts
29-May-18 05:56 50.481297 -74.667950 248 42302ft 472kts
29-May-18 05:57 50.418047 -74.848364 248 42298ft 472kts
29-May-18 05:58 50.354376 -75.028776 247 42289ft 472kts
29-May-18 05:59 50.290553 -75.208153 247 42294ft 472kts
29-May-18 06:00 50.226225 -75.387780 247 42304ft 473kts
29-May-18 06:01 50.161859 -75.566235 247 42303ft 472kts
29-May-18 06:02 50.097248 -75.744269 247 42294ft 472kts
29-May-18 06:03 50.032076 -75.922431 247 42291ft 473kts
29-May-18 06:04 49.966851 -76.099575 246 42304ft 473kts
29-May-18 06:05 49.901309 -76.276386 246 42313ft 473kts
29-May-18 06:06 49.835255 -76.453365 246 42309ft 473kts
29-May-18 06:07 49.769182 -76.629128 246 42308ft 473kts
29-May-18 06:08 49.702929 -76.804412 245 42313ft 472kts
29-May-18 06:09 49.636162 -76.979566 245 42307ft 472kts
29-May-18 06:10 49.569404 -77.153690 245 42307ft 472kts
29-May-18 06:11 49.502408 -77.327407 245 42319ft 472kts
29-May-18 06:12 49.434868 -77.501224 245 42321ft 472kts
29-May-18 06:13 49.367303 -77.673978 245 42311ft 472kts
29-May-18 06:14 49.299433 -77.846326 244 42309ft 473kts
29-May-18 06:15 49.231083 -78.018791 244 42319ft 473kts
29-May-18 06:16 49.162713 -78.190215 244 42320ft 472kts
29-May-18 06:17 49.094096 -78.361174 243 42307ft 473kts
29-May-18 06:18 49.024973 -78.532218 243 42302ft 473kts
29-May-18 06:19 48.955780 -78.702390 243 42308ft 473kts
29-May-18 06:20 48.897916 -78.843864 243 42308ft 473kts
29-May-18 06:21 48.828050 -79.013769 243 42298ft 473kts
29-May-18 06:22 48.758070 -79.182787 243 42303ft 474kts
29-May-18 06:23 48.687843 -79.351335 242 42311ft 474kts
29-May-18 06:24 48.617116 -79.519995 242 42301ft 474kts
29-May-18 06:25 48.534566 -79.715604 242 42289ft 474kts
29-May-18 06:26 48.463581 -79.882606 242 42294ft 474kts
29-May-18 06:27 48.403977 -80.022057 242 42286ft 474kts
29-May-18 06:28 48.332477 -80.188287 242 42279ft 474kts
29-May-18 06:29 48.260786 -80.354071 242 42287ft 474kts
29-May-18 06:30 48.188578 -80.520014 241 42292ft 474kts
29-May-18 06:31 48.116419 -80.684994 242 42284ft 473kts
29-May-18 06:32 48.044092 -80.849191 241 42277ft 473kts
29-May-18 06:33 47.971321 -81.013380 241 42283ft 473kts
29-May-18 06:34 47.898621 -81.176446 241 42288ft 472kts
29-May-18 06:35 47.825743 -81.338947 241 42271ft 472kts
29-May-18 06:36 47.752390 -81.501539 241 42260ft 472kts
29-May-18 06:37 47.679060 -81.663118 241 42267ft 472kts
29-May-18 06:38 47.605481 -81.824293 241 42261ft 472kts
29-May-18 06:39 47.531422 -81.985569 241 42249ft 472kts
29-May-18 06:40 47.457412 -82.145770 240 42250ft 472kts
29-May-18 06:41 47.383204 -82.305510 240 42257ft 472kts
29-May-18 06:42 47.308571 -82.465253 240 42251ft 472kts
29-May-18 06:43 47.233969 -82.623967 240 42236ft 472kts
29-May-18 06:44 47.159157 -82.782189 239 42242ft 472kts
29-May-18 06:45 47.083876 -82.940494 239 42231ft 471kts
29-May-18 06:46 47.008724 -83.097725 239 42222ft 471kts
29-May-18 06:47 46.933337 -83.254512 239 42226ft 471kts
29-May-18 06:48 46.857762 -83.410719 238 42214ft 471kts
29-May-18 06:49 46.781778 -83.567032 239 42214ft 471kts
29-May-18 06:50 46.705829 -83.722295 238 42198ft 471kts
29-May-18 06:51 46.629705 -83.877098 238 42189ft 471kts
29-May-18 06:52 46.553080 -84.032030 238 42177ft 471kts
29-May-18 06:53 46.476542 -84.185933 237 42181ft 470kts
29-May-18 06:54 46.390062 -84.328582 229 42180ft 474kts
29-May-18 06:55 46.282093 -84.440425 215 42175ft 481kts
29-May-18 06:56 46.169801 -84.545968 217 42194ft 483kts
29-May-18 06:57 46.057099 -84.651017 216 42173ft 483kts
29-May-18 06:58 45.943936 -84.756024 216 42165ft 483kts
29-May-18 06:59 45.831114 -84.860316 215 42172ft 482kts
29-May-18 07:00 45.718319 -84.964018 215 42153ft 482kts
29-May-18 07:01 45.605130 -85.067574 215 42141ft 482kts
29-May-18 07:02 45.492348 -85.170271 215 42142ft 481kts
29-May-18 07:03 45.379484 -85.272516 215 42122ft 481kts
29-May-18 07:04 45.266238 -85.374650 214 42130ft 481kts
29-May-18 07:05 45.153335 -85.475959 214 42112ft 481kts
29-May-18 07:06 45.040360 -85.576914 214 42093ft 480kts
29-May-18 07:07 44.926955 -85.677695 214 42075ft 480kts
29-May-18 07:08 44.813889 -85.777772 213 42079ft 480kts
29-May-18 07:09 44.700751 -85.877420 213 42068ft 480kts
29-May-18 07:10 44.587229 -85.976912 213 42060ft 480kts
29-May-18 07:11 44.474064 -86.075661 212 42069ft 479kts
29-May-18 07:12 44.360466 -86.174303 212 42057ft 479kts
29-May-18 07:13 44.247246 -86.272197 212 42043ft 479kts
29-May-18 07:14 44.133917 -86.369700 212 42048ft 479kts
29-May-18 07:15 44.020161 -86.467128 212 42046ft 479kts
29-May-18 07:16 43.906745 -86.563863 211 42039ft 479kts
29-May-18 07:17 43.793232 -86.660230 211 42035ft 479kts
29-May-18 07:18 43.679314 -86.756470 211 42037ft 479kts
29-May-18 07:19 43.565719 -86.852036 211 42043ft 478kts
29-May-18 07:20 43.452069 -86.947214 211 42035ft 478kts
29-May-18 07:21 43.338012 -87.042307 211 42034ft 478kts
29-May-18 07:22 43.224288 -87.136736 211 42045ft 478kts
29-May-18 07:23 43.110189 -87.230984 210 42044ft 477kts
29-May-18 07:24 42.996518 -87.324502 210 42038ft 477kts
29-May-18 07:25 42.882728 -87.417708 210 42041ft 477kts
29-May-18 07:26 42.768710 -87.510738 210 42053ft 476kts
29-May-18 07:27 42.655141 -87.602944 210 42036ft 476kts
29-May-18 07:28 42.541594 -87.694775 210 42027ft 475kts
29-May-18 07:29 42.427708 -87.786477 210 42009ft 475kts
29-May-18 07:30 42.314297 -87.877393 210 42005ft 474kts
29-May-18 07:31 42.199134 -87.963548 204 42025ft 475kts
29-May-18 07:32 42.076543 -88.030820 201 42030ft 474kts
29-May-18 07:33 41.954570 -88.097529 201 41996ft 473kts
29-May-18 07:34 41.832632 -88.163801 201 41999ft 473kts
29-May-18 07:35 41.710314 -88.230100 201 41994ft 473kts
29-May-18 07:36 41.588315 -88.295929 201 41986ft 473kts
29-May-18 07:37 41.466768 -88.364413 203 41985ft 473kts
29-May-18 07:38 41.346092 -88.434038 203 41986ft 473kts
29-May-18 07:39 41.225287 -88.503487 203 41980ft 473kts
29-May-18 07:40 41.104005 -88.572800 202 41983ft 474kts
29-May-18 07:41 40.983036 -88.641696 202 41995ft 474kts
29-May-18 07:42 40.862075 -88.710386 202 41995ft 473kts
29-May-18 07:43 40.750821 -88.801672 216 41979ft 471kts
29-May-18 07:44 40.645547 -88.905106 215 42000ft 473kts
29-May-18 07:45 40.539314 -89.008257 215 41999ft 474kts
29-May-18 07:46 40.433333 -89.110822 215 41987ft 474kts
29-May-18 07:47 40.327421 -89.212866 215 41985ft 472kts
29-May-18 07:48 40.221230 -89.314832 215 41970ft 472kts
29-May-18 07:49 40.115237 -89.416155 215 41964ft 473kts
29-May-18 07:50 40.009000 -89.517334 215 41970ft 473kts
29-May-18 07:51 39.902173 -89.618648 215 41977ft 474kts
29-May-18 07:52 39.788544 -89.705643 201 41967ft 477kts
29-May-18 07:53 39.665328 -89.768406 201 41965ft 475kts
29-May-18 07:54 39.542571 -89.832345 201 41974ft 474kts
29-May-18 07:55 39.420323 -89.895528 201 41970ft 473kts
29-May-18 07:56 39.297784 -89.958654 201 41963ft 472kts
29-May-18 07:57 39.175806 -90.021201 201 41969ft 472kts
29-May-18 07:58 39.053652 -90.083625 201 41972ft 473kts
29-May-18 07:59 38.931051 -90.146068 201 41967ft 473kts
29-May-18 08:00 38.808852 -90.208060 201 41960ft 472kts
29-May-18 08:01 38.686748 -90.269772 201 41971ft 472kts
29-May-18 08:02 38.564302 -90.331422 201 41940ft 471kts
29-May-18 08:03 38.442381 -90.392626 201 41937ft 471kts
29-May-18 08:04 38.320515 -90.453542 201 41949ft 471kts
29-May-18 08:05 38.198229 -90.514454 201 41946ft 471kts
29-May-18 08:06 38.076301 -90.574936 201 41939ft 471kts
29-May-18 08:07 37.953933 -90.635453 201 41947ft 471kts
29-May-18 08:08 37.831907 -90.695582 201 41956ft 471kts
29-May-18 08:09 37.709652 -90.755615 201 41948ft 472kts
29-May-18 08:10 37.586891 -90.815740 201 41939ft 472kts
29-May-18 08:11 37.464227 -90.875544 200 41941ft 474kts
29-May-18 08:12 37.341235 -90.935197 200 41946ft 474kts
29-May-18 08:13 37.217754 -90.995015 200 41935ft 475kts
29-May-18 08:14 37.094558 -91.054440 200 41926ft 475kts
29-May-18 08:15 36.971215 -91.113742 200 41936ft 476kts
29-May-18 08:16 36.847312 -91.173099 200 41936ft 476kts
29-May-18 08:17 36.723616 -91.232156 200 41918ft 477kts
29-May-18 08:18 36.599300 -91.291282 200 41917ft 477kts
29-May-18 08:19 36.475291 -91.350060 200 41903ft 478kts
29-May-18 08:20 36.351030 -91.408801 200 41901ft 478kts
29-May-18 08:21 36.226175 -91.467573 200 41906ft 479kts
29-May-18 08:22 36.101526 -91.526090 200 41900ft 480kts
29-May-18 08:23 35.976585 -91.584488 200 41891ft 481kts
29-May-18 08:24 35.851032 -91.642999 200 41890ft 482kts
29-May-18 08:25 35.725737 -91.701195 200 41902ft 482kts
29-May-18 08:26 35.600328 -91.759251 200 41905ft 482kts
29-May-18 08:27 35.474482 -91.817344 200 41885ft 482kts
29-May-18 08:28 35.348998 -91.875050 200 41881ft 482kts
29-May-18 08:29 35.223031 -91.932737 200 41889ft 482kts
29-May-18 08:30 35.097485 -91.990124 200 41883ft 483kts
29-May-18 08:31 34.971481 -92.047515 200 41872ft 485kts
29-May-18 08:32 34.844416 -92.105110 200 41881ft 487kts
29-May-18 08:33 34.717533 -92.162512 200 41887ft 488kts
29-May-18 08:34 34.584851 -92.198583 187 41874ft 491kts
29-May-18 08:35 34.449683 -92.223652 189 41873ft 490kts
29-May-18 08:36 34.315067 -92.249008 189 41880ft 490kts
29-May-18 08:37 34.179913 -92.274240 188 41877ft 490kts
29-May-18 08:38 34.045236 -92.299423 188 41880ft 490kts
29-May-18 08:39 33.910509 -92.324602 189 41894ft 491kts
29-May-18 08:40 33.775191 -92.349684 189 41893ft 491kts
29-May-18 08:41 33.640241 -92.374653 189 41880ft 491kts
29-May-18 08:42 33.505113 -92.399589 189 41876ft 492kts
29-May-18 08:43 33.369249 -92.424588 189 41884ft 493kts
29-May-18 08:44 33.256228 -92.445295 189 41874ft 494kts
29-May-18 08:45 33.119809 -92.470250 189 41880ft 495kts
29-May-18 08:46 32.983532 -92.495102 189 41887ft 496kts
29-May-18 08:47 32.846982 -92.519922 189 41889ft 497kts
29-May-18 08:48 32.709659 -92.544801 189 41883ft 498kts
29-May-18 08:49 32.572628 -92.569609 189 41901ft 499kts
29-May-18 08:50 32.435319 -92.594309 189 41905ft 500kts
29-May-18 08:51 32.297521 -92.619107 189 41889ft 500kts
29-May-18 08:52 32.159978 -92.643721 189 41883ft 500kts
29-May-18 08:53 32.023511 -92.675204 206 41865ft 496kts
29-May-18 08:54 31.906128 -92.759272 215 41859ft 495kts
29-May-18 08:55 31.805886 -92.868501 226 41855ft 492kts
29-May-18 08:56 31.706446 -92.979735 226 41858ft 492kts
29-May-18 08:57 31.607499 -93.090579 226 40500ft 493kts
29-May-18 08:58 31.508369 -93.201231 227 38720ft 492kts
29-May-18 08:59 31.409045 -93.311731 227 36938ft 490kts
29-May-18 09:00 31.309976 -93.421632 227 35081ft 494kts
29-May-18 09:01 31.209655 -93.532617 227 33308ft 498kts
29-May-18 09:02 31.108416 -93.644197 227 31503ft 501kts
29-May-18 09:03 31.007696 -93.754923 227 29647ft 494kts
29-May-18 09:04 30.908897 -93.863162 227 27860ft 479kts
29-May-18 09:05 30.813290 -93.967872 227 26167ft 466kts
29-May-18 09:06 30.720163 -94.069912 226 24468ft 455kts
29-May-18 09:07 30.628762 -94.169464 225 22879ft 445kts
29-May-18 09:08 30.537529 -94.263881 224 20609ft 433kts
29-May-18 09:09 30.449257 -94.355018 224 18340ft 418kts
29-May-18 09:10 30.362600 -94.441626 221 16196ft 405kts
29-May-18 09:11 30.276560 -94.523440 221 14321ft 396kts
29-May-18 09:12 30.191855 -94.603485 220 12680ft 386kts
29-May-18 09:13 30.107304 -94.678325 219 10136ft 379kts
29-May-18 09:14 30.030713 -94.752407 240 8655ft 341kts
29-May-18 09:15 30.002729 -94.846237 279 8331ft 289kts
29-May-18 09:16 30.004390 -94.932801 274 8037ft 260kts
29-May-18 09:17 30.006789 -95.008109 271 7439ft 217kts
29-May-18 09:18 30.007052 -95.072673 270 5625ft 187kts
29-May-18 09:19 30.007159 -95.132126 270 4156ft 193kts
29-May-18 09:20 30.007345 -95.190151 269 2445ft 159kts
29-May-18 09:21 30.007284 -95.237597 268 1687ft 143kts
29-May-18 09:22 30.007199 -95.283512 270 934ft 143kts
29-May-18 09:23 30.007209 -95.329508 269 189ft 142kts
29-May-18 09:24 30.005524 -95.356236 216 110ft 34kts
29-May-18 09:25 30.003634 -95.356542 178 110ft 0kts

Navigation Log

Ident Type
Flight plan parsing failed, navigation log unavailable